• pl
  • eng

Awiacja
Kliknij na pogrubioną czerwoną nazwę, aby odkodować depeszę. 10:31 17.08.2018
  • WIND
  • SIGNIFICANT EURO
  • SIGNIFICANT
  • SIGMET
  • AIRMET
  • TAF FC
  • TAF FT
  • METAR GG30
  • METAR GG00


METAR EPBY 170830Z 13007KT 070V240 CAVOK 25/16 Q1017 =

METAR EPGD 170830Z 16009KT 140V200 CAVOK 23/15 Q1018 =

METAR EPKK 170830Z 10009KT CAVOK 23/17 Q1018 =

METAR EPKT 170830Z 15011KT 130V190 CAVOK 24/14 Q1017 =

METAR EPLB 170830Z 10008KT CAVOK 23/15 Q1019 =

METAR EPLL 170830Z 11006KT 050V170 9999 FEW033 24/16 Q1018 =

METAR EPMO 170830Z 13005KT 080V220 CAVOK 25/16 Q1018 =

METAR EPPO 170830Z 14007KT 110V180 CAVOK 27/15 Q1017 =

METAR EPRA 170830Z NIL=

METAR EPRZ 170830Z 10009KT 9999 SCT020 22/18 Q1018 =

METAR EPSC 170830Z 13010KT CAVOK 26/14 Q1015 =

METAR EPSY 170830Z 14007KT 090V180 CAVOK 22/15 Q1020=

METAR EPWA 170830Z 12009KT 9999 FEW030 24/16 Q1019 NOSIG=

METAR EPWR 170830Z 12008KT CAVOK 24/16 Q1016 =

METAR EPZG 170830Z 11006KT 070V180 CAVOK 26/15 Q1016 =
 METAR EPSC
Lokalizacja:EPSC Szczecin Goleniów
Czas:08:30 UTC
Średni kierunek wiatru:130 °
Średnia prędkość wiatru:10 węzłów
CAVOK:Widzialność 10 km i więcej, zjawisko: NIL, zachmurzenie: NSC
Temperatura powietrza:26 °C
Temperatura punktu rosy:14 °C
Ciśnienie QNH:1015 hPa
Awiacja.imgw.pl jest pogodowym serwisem informacyjnym
Instytutu Meteorologii i Gospodarki Wodnej Państwowego Instytutu Badawczego.
Copyright IMGW PIB 2009-2011© Wszelkie prawa zastrzeżone.